Terminal Aerodrome Forecast
Issued by NWS Shreveport, LA

Home | Current Version | Previous Version | Text Only | Print | Product List | Glossary On
Versions: 1 2 3 4 5 6 7 8 9 10 11 12 13 14 15 16 17
000
FTUS44 KSHV 260529
TAFELD
TAF
KELD 260529Z 2606/2706 00000KT P6SM BKN050 OVC090
     FM260900 00000KT P6SM SCT050 BKN120
     FM261100 19003KT 5SM BR SCT025 BKN090
     FM261600 24005KT P6SM BKN035 BKN050
     FM261800 25007KT P6SM BKN250
     FM270100 07002KT P6SM VCSH BKN040 BKN090
     FM270300 00000KT P6SM BKN035=

USA.gov is the U.S. government's official web portal to all federal, state and local government web resources and services.